Time;durP1;ratioP1;P1;durP2;ratioP2;P2;SDS_P1;SDS_P2;PMS_P1;PMS_P2;Temp;Humidity;BMP_temperature;BMP_pressure;BME280_temperature;BME280_humidity;BME280_pressure;Samples;Min_cycle;Max_cycle;Signal;HPM_P1;HPM_P2
2022/06/16 00:02:31;;;;;;;;;;;;;;;;;;5082636;28;20383;-86
2022/06/16 00:05:18;;;;;;;;;;;;;;;;;;5080802;28;19915;-86
2022/06/16 00:08:04;;;;;;;;;;;;;;;;;;5085772;28;19916;-86
2022/06/16 00:13:56;;;;;;;;;;;;;;;;;;5089693;28;19930;-86
2022/06/16 00:16:42;;;;;;;;;;;;;;;;;;5084263;28;19915;-88
2022/06/16 00:19:29;;;;;;;;;;;;;;;;;;5079310;28;20361;-87
2022/06/16 00:22:16;;;;;;;;;;;;;;;;;;5085881;28;19923;-86
2022/06/16 00:25:02;;;;;;;;;;;;;;;;;;5085947;28;20287;-86
2022/06/16 00:27:49;;;;;;;;;;;;;;;;;;5084139;28;19913;-87
2022/06/16 00:30:35;;;;;;;;;;;;;;;;;;5084051;28;19916;-87
2022/06/16 00:33:22;;;;;;;;;;;;;;;;;;5080509;28;19931;-87
2022/06/16 00:36:08;;;;;;;;;;;;;;;;;;5089521;28;19991;-87
2022/06/16 00:38:55;;;;;;;;;;;;;;;;;;5072432;28;19913;-87
2022/06/16 00:41:41;;;;;;;;;;;;;;;;;;5090818;28;19957;-86
2022/06/16 00:44:28;;;;;;;;;;;;;;;;;;5090694;28;19923;-88
2022/06/16 00:47:14;;;;;;;;;;;;;;;;;;5087003;28;20277;-88
2022/06/16 00:50:00;;;;;;;;;;;;;;;;;;5090620;28;19912;-88
2022/06/16 00:52:47;;;;;;;;;;;;;;;;;;5091740;28;19920;-89
2022/06/16 00:55:33;;;;;;;;;;;;;;;;;;5092899;28;19919;-86
2022/06/16 00:58:20;;;;;;;;;;;;;;;;;;5092185;28;20284;-86
2022/06/16 01:01:07;;;;;;;;;;;;;;;;;;5077372;28;19913;-87
2022/06/16 01:06:58;;;;;;;;;;;;;;;;;;5076265;28;20331;-85
2022/06/16 01:09:45;;;;;;;;;;;;;;;;;;5068654;28;19915;-84
2022/06/16 01:15:36;;;;;;;;;;;;;;;;;;5079142;28;20015;-83
2022/06/16 01:18:23;;;;;;;;;;;;;;;;;;5083985;28;19957;-83
2022/06/16 01:21:09;;;;;;;;;;;;;;;;;;5086707;28;19923;-83
2022/06/16 01:23:56;;;;;;;;;;;;;;;;;;5085399;28;19920;-84
2022/06/16 01:26:43;;;;;;;;;;;;;;;;;;5092144;28;19912;-85
2022/06/16 01:29:29;;;;;;;;;;;;;;;;;;5079277;28;19912;-79
2022/06/16 01:32:16;;;;;;;;;;;;;;;;;;5091703;28;19918;-85
2022/06/16 01:35:02;;;;;;;;;;;;;;;;;;5080430;28;19936;-88
2022/06/16 01:37:49;;;;;;;;;;;;;;;;;;5080226;28;19912;-87
2022/06/16 01:40:35;;;;;;;;;;;;;;;;;;5090091;28;19908;-89
2022/06/16 01:43:22;;;;;;;;;;;;;;;;;;5075804;28;19923;-86
2022/06/16 01:46:08;;;;;;;;;;;;;;;;;;5074027;28;19931;-84
2022/06/16 01:48:55;;;;;;;;;;;;;;;;;;5091128;28;19919;-84
2022/06/16 01:51:41;;;;;;;;;;;;;;;;;;5089498;28;20305;-87
2022/06/16 01:54:27;;;;;;;;;;;;;;;;;;5090369;28;19919;-87
2022/06/16 01:57:14;;;;;;;;;;;;;;;;;;5092342;28;19922;-87
2022/06/16 02:00:00;;;;;;;;;;;;;;;;;;5081260;28;19912;-84
2022/06/16 02:02:47;;;;;;;;;;;;;;;;;;5074357;28;19931;-85
2022/06/16 02:05:33;;;;;;;;;;;;;;;;;;5083528;28;19919;-87
2022/06/16 02:08:20;;;;;;;;;;;;;;;;;;5070552;28;19923;-86
2022/06/16 02:11:06;;;;;;;;;;;;;;;;;;5086638;28;19920;-91
2022/06/16 02:13:53;;;;;;;;;;;;;;;;;;5078768;28;19908;-90
2022/06/16 02:16:39;;;;;;;;;;;;;;;;;;5084280;28;19912;-89
2022/06/16 02:19:26;;;;;;;;;;;;;;;;;;5091729;28;20451;-89
2022/06/16 02:22:12;;;;;;;;;;;;;;;;;;5086098;28;20272;-89
2022/06/16 02:24:59;;;;;;;;;;;;;;;;;;5078995;28;19909;-87
2022/06/16 02:27:45;;;;;;;;;;;;;;;;;;5078153;28;19916;-86
2022/06/16 02:30:32;;;;;;;;;;;;;;;;;;5081816;28;19992;-85
2022/06/16 02:33:18;;;;;;;;;;;;;;;;;;5070832;28;20008;-87
2022/06/16 02:36:05;;;;;;;;;;;;;;;;;;5090950;28;19918;-85
2022/06/16 02:38:52;;;;;;;;;;;;;;;;;;5088593;28;19912;-85
2022/06/16 02:41:38;;;;;;;;;;;;;;;;;;5099085;28;19912;-86
2022/06/16 02:44:25;;;;;;;;;;;;;;;;;;5090031;28;19916;-87
2022/06/16 02:47:11;;;;;;;;;;;;;;;;;;5083963;28;19915;-86
2022/06/16 02:49:58;;;;;;;;;;;;;;;;;;5092868;28;19908;-88
2022/06/16 02:52:44;;;;;;;;;;;;;;;;;;5085472;28;19924;-86
2022/06/16 02:55:31;;;;;;;;;;;;;;;;;;5086233;28;19913;-87
2022/06/16 02:58:17;;;;;;;;;;;;;;;;;;5075380;28;19916;-87
2022/06/16 03:01:04;;;;;;;;;;;;;;;;;;5085263;28;19915;-85
2022/06/16 03:03:50;;;;;;;;;;;;;;;;;;5064757;28;19927;-85
2022/06/16 03:06:37;;;;;;;;;;;;;;;;;;5078944;28;19923;-85
2022/06/16 03:09:23;;;;;;;;;;;;;;;;;;5092223;28;20282;-89
2022/06/16 03:12:09;;;;;;;;;;;;;;;;;;5076453;28;19922;-89
2022/06/16 03:14:56;;;;;;;;;;;;;;;;;;5092269;28;19938;-88
2022/06/16 03:17:42;;;;;;;;;;;;;;;;;;5077691;28;19915;-87
2022/06/16 03:20:29;;;;;;;;;;;;;;;;;;5090638;28;20292;-88
2022/06/16 03:23:15;;;;;;;;;;;;;;;;;;5069924;28;19916;-89
2022/06/16 03:26:02;;;;;;;;;;;;;;;;;;5058251;28;19912;-89
2022/06/16 03:28:49;;;;;;;;;;;;;;;;;;5089420;28;19908;-90
2022/06/16 03:31:36;;;;;;;;;;;;;;;;;;5091976;28;19919;-89
2022/06/16 03:34:22;;;;;;;;;;;;;;;;;;5078749;28;19923;-89
2022/06/16 03:37:09;;;;;;;;;;;;;;;;;;5091004;28;19912;-89
2022/06/16 03:39:55;;;;;;;;;;;;;;;;;;5090880;28;19912;-90
2022/06/16 03:42:42;;;;;;;;;;;;;;;;;;5076577;28;19917;-88
2022/06/16 03:45:28;;;;;;;;;;;;;;;;;;5083676;28;19908;-88
2022/06/16 03:48:15;;;;;;;;;;;;;;;;;;5087411;28;19911;-88
2022/06/16 03:51:01;;;;;;;;;;;;;;;;;;5091696;28;19927;-89
2022/06/16 03:53:48;;;;;;;;;;;;;;;;;;5082479;28;19923;-87
2022/06/16 03:56:34;;;;;;;;;;;;;;;;;;5084036;28;19918;-86
2022/06/16 03:59:21;;;;;;;;;;;;;;;;;;5074990;28;19912;-87
2022/06/16 04:02:08;;;;;;;;;;;;;;;;;;5064426;28;19916;-85
2022/06/16 04:04:54;;;;;;;;;;;;;;;;;;5077425;28;19942;-85
2022/06/16 04:07:41;;;;;;;;;;;;;;;;;;5086611;28;19916;-85
2022/06/16 04:10:27;;;;;;;;;;;;;;;;;;5083421;28;19913;-86
2022/06/16 04:13:13;;;;;;;;;;;;;;;;;;5093622;28;19912;-84
2022/06/16 04:16:00;;;;;;;;;;;;;;;;;;5080108;28;19912;-85
2022/06/16 04:18:46;;;;;;;;;;;;;;;;;;5094033;28;19915;-87
2022/06/16 04:21:33;;;;;;;;;;;;;;;;;;5077644;28;19932;-88
2022/06/16 04:24:19;;;;;;;;;;;;;;;;;;5092532;28;19920;-87
2022/06/16 04:27:06;;;;;;;;;;;;;;;;;;5086691;28;19908;-86
2022/06/16 04:29:52;;;;;;;;;;;;;;;;;;5080500;28;19908;-85
2022/06/16 04:32:39;;;;;;;;;;;;;;;;;;5080485;28;19915;-87
2022/06/16 04:35:25;;;;;;;;;;;;;;;;;;5084252;28;20280;-85
2022/06/16 04:38:12;;;;;;;;;;;;;;;;;;5089906;28;19919;-89
2022/06/16 04:40:58;;;;;;;;;;;;;;;;;;5089622;28;19918;-88
2022/06/16 04:43:45;;;;;;;;;;;;;;;;;;5083664;28;19927;-90
2022/06/16 04:46:32;;;;;;;;;;;;;;;;;;5081810;28;19922;-88
2022/06/16 04:49:18;;;;;;;;;;;;;;;;;;5083820;28;19916;-80
2022/06/16 04:52:05;;;;;;;;;;;;;;;;;;5081958;28;20291;-80
2022/06/16 04:54:52;;;;;;;;;;;;;;;;;;5089783;28;19915;-80
2022/06/16 04:57:38;;;;;;;;;;;;;;;;;;5084723;28;19912;-80
2022/06/16 05:00:25;;;;;;;;;;;;;;;;;;5076972;28;19948;-80
2022/06/16 05:03:11;;;;;;;;;;;;;;;;;;5074202;28;19939;-80
2022/06/16 05:05:58;;;;;;;;;;;;;;;;;;5078318;28;19919;-80
2022/06/16 05:08:44;;;;;;;;;;;;;;;;;;5082166;28;19916;-81
2022/06/16 05:11:31;;;;;;;;;;;;;;;;;;5065386;28;19917;-81
2022/06/16 05:14:17;;;;;;;;;;;;;;;;;;5080098;28;19924;-81
2022/06/16 05:17:04;;;;;;;;;;;;;;;;;;5077905;28;19912;-81
2022/06/16 05:19:50;;;;;;;;;;;;;;;;;;5069434;28;19920;-81
2022/06/16 05:22:37;;;;;;;;;;;;;;;;;;5075503;28;19925;-82
2022/06/16 05:25:23;;;;;;;;;;;;;;;;;;5077336;28;19922;-82
2022/06/16 05:28:10;;;;;;;;;;;;;;;;;;5068275;28;19916;-82
2022/06/16 05:30:56;;;;;;;;;;;;;;;;;;5082384;28;19919;-83
2022/06/16 05:33:43;;;;;;;;;;;;;;;;;;5077693;28;19920;-84
2022/06/16 05:36:29;;;;;;;;;;;;;;;;;;5080648;28;19927;-82
2022/06/16 05:39:18;;;;;;;;;;;;;;;;;;5081165;28;19912;-82
2022/06/16 05:42:04;;;;;;;;;;;;;;;;;;5067431;28;19920;-82
2022/06/16 05:44:51;;;;;;;;;;;;;;;;;;5079329;28;19942;-81
2022/06/16 05:47:37;;;;;;;;;;;;;;;;;;5079699;28;19913;-82
2022/06/16 05:50:25;;;;;;;;;;;;;;;;;;5077903;28;19920;-82
2022/06/16 05:53:12;;;;;;;;;;;;;;;;;;5078228;28;19944;-83
2022/06/16 05:55:58;;;;;;;;;;;;;;;;;;5067914;28;20372;-82
2022/06/16 05:58:45;;;;;;;;;;;;;;;;;;5074469;28;19916;-82
2022/06/16 06:01:31;;;;;;;;;;;;;;;;;;5075967;28;19923;-82
2022/06/16 06:04:18;;;;;;;;;;;;;;;;;;5073555;28;19928;-80
2022/06/16 06:07:04;;;;;;;;;;;;;;;;;;5078547;28;19931;-81
2022/06/16 06:22:13;;;;;;;;;;;;;;;;;;5087077;28;19916;-77
2022/06/16 06:25:00;;;;;;;;;;;;;;;;;;5082586;28;19916;-76
2022/06/16 06:27:46;;;;;;;;;;;;;;;;;;5077154;28;19908;-77
2022/06/16 06:30:34;;;;;;;;;;;;;;;;;;5079272;28;19916;-78
2022/06/16 06:33:20;;;;;;;;;;;;;;;;;;5087261;28;19989;-78
2022/06/16 06:36:07;;;;;;;;;;;;;;;;;;5080010;28;19912;-81
2022/06/16 06:38:53;;;;;;;;;;;;;;;;;;5074005;28;19913;-81
2022/06/16 06:41:40;;;;;;;;;;;;;;;;;;5065445;28;19924;-81
2022/06/16 06:44:26;;;;;;;;;;;;;;;;;;5080366;28;19955;-82
2022/06/16 06:47:13;;;;;;;;;;;;;;;;;;5082826;28;20343;-80
2022/06/16 06:49:59;;;;;;;;;;;;;;;;;;5079343;28;19923;-79
2022/06/16 06:52:45;;;;;;;;;;;;;;;;;;5081442;28;19931;-78
2022/06/16 06:55:32;;;;;;;;;;;;;;;;;;5086886;28;20586;-79
2022/06/16 06:58:18;;;;;;;;;;;;;;;;;;5076484;28;20383;-79
2022/06/16 07:01:06;;;;;;;;;;;;;;;;;;5075674;28;19928;-79
2022/06/16 07:03:53;;;;;;;;;;;;;;;;;;5063876;28;19924;-78
2022/06/16 07:06:39;;;;;;;;;;;;;;;;;;5069491;28;19916;-80
2022/06/16 07:09:26;;;;;;;;;;;;;;;;;;5079199;28;20017;-80
2022/06/16 07:12:15;;;;;;;;;;;;;;;;;;5080571;28;19926;-81
2022/06/16 07:15:01;;;;;;;;;;;;;;;;;;5084658;28;19917;-82
2022/06/16 07:17:48;;;;;;;;;;;;;;;;;;5083260;28;19915;-78
2022/06/16 07:20:34;;;;;;;;;;;;;;;;;;5080647;28;19919;-78
2022/06/16 07:23:30;;;;;;;;;;;;;;;;;;5074342;28;19921;-76
2022/06/16 07:26:16;;;;;;;;;;;;;;;;;;5061308;28;19940;-79
2022/06/16 07:29:03;;;;;;;;;;;;;;;;;;5071552;28;19909;-79
2022/06/16 07:31:49;;;;;;;;;;;;;;;;;;5075780;28;19913;-79
2022/06/16 07:34:35;;;;;;;;;;;;;;;;;;5076173;28;19915;-77
2022/06/16 07:37:22;;;;;;;;;;;;;;;;;;5059501;28;19923;-78
2022/06/16 07:40:08;;;;;;;;;;;;;;;;;;5084249;28;19908;-78
2022/06/16 07:42:57;;;;;;;;;;;;;;;;;;5072838;28;19938;-77
2022/06/16 07:45:45;;;;;;;;;;;;;;;;;;5074090;28;19920;-78
2022/06/16 07:48:31;;;;;;;;;;;;;;;;;;5074406;28;20577;-78
2022/06/16 07:51:18;;;;;;;;;;;;;;;;;;5085738;28;19916;-77
2022/06/16 07:54:04;;;;;;;;;;;;;;;;;;5087623;28;19924;-79
2022/06/16 07:56:51;;;;;;;;;;;;;;;;;;5071635;28;19912;-78
2022/06/16 07:59:37;;;;;;;;;;;;;;;;;;5073556;28;19923;-76
2022/06/16 08:02:23;;;;;;;;;;;;;;;;;;5079947;28;19924;-76
2022/06/16 08:05:10;;;;;;;;;;;;;;;;;;5083243;28;19919;-76
2022/06/16 08:07:57;;;;;;;;;;;;;;;;;;5079108;28;19915;-77
2022/06/16 08:10:43;;;;;;;;;;;;;;;;;;5086076;28;19915;-76
2022/06/16 08:13:30;;;;;;;;;;;;;;;;;;5075380;28;20284;-78
2022/06/16 08:16:16;;;;;;;;;;;;;;;;;;5071187;28;20408;-77
2022/06/16 08:19:02;;;;;;;;;;;;;;;;;;5084139;28;19912;-78
2022/06/16 08:21:49;;;;;;;;;;;;;;;;;;5077665;28;20388;-78
2022/06/16 08:24:35;;;;;;;;;;;;;;;;;;5079443;28;19925;-77
2022/06/16 08:27:22;;;;;;;;;;;;;;;;;;5086980;28;19916;-78
2022/06/16 08:30:08;;;;;;;;;;;;;;;;;;5082721;28;20291;-76
2022/06/16 08:32:55;;;;;;;;;;;;;;;;;;5080977;28;19918;-76
2022/06/16 08:35:41;;;;;;;;;;;;;;;;;;5080733;28;20383;-76
2022/06/16 08:38:28;;;;;;;;;;;;;;;;;;5081350;28;19950;-76
2022/06/16 08:41:15;;;;;;;;;;;;;;;;;;5085996;28;19931;-76
2022/06/16 08:44:03;;;;;;;;;;;;;;;;;;5083115;28;20368;-76
2022/06/16 08:46:49;;;;;;;;;;;;;;;;;;5073224;28;19912;-76
2022/06/16 08:49:37;;;;;;;;;;;;;;;;;;5085460;28;19930;-76
2022/06/16 08:52:24;;;;;;;;;;;;;;;;;;5085515;28;19924;-78
2022/06/16 08:55:10;;;;;;;;;;;;;;;;;;5085079;28;20288;-78
2022/06/16 08:57:57;;;;;;;;;;;;;;;;;;5083229;28;19912;-77
2022/06/16 09:00:44;;;;;;;;;;;;;;;;;;5080848;28;20446;-77
2022/06/16 09:03:30;;;;;;;;;;;;;;;;;;5084355;28;19916;-77
2022/06/16 09:06:16;;;;;;;;;;;;;;;;;;5090721;28;19912;-78
2022/06/16 09:09:03;;;;;;;;;;;;;;;;;;5077079;28;19908;-78
2022/06/16 09:11:49;;;;;;;;;;;;;;;;;;5088976;28;19912;-77
2022/06/16 09:17:41;;;;;;;;;;;;;;;;;;5081440;28;19908;-78
2022/06/16 09:20:28;;;;;;;;;;;;;;;;;;5085781;28;19919;-75
2022/06/16 09:23:15;;;;;;;;;;;;;;;;;;5081546;28;19921;-78
2022/06/16 09:26:01;;;;;;;;;;;;;;;;;;5088616;28;19996;-78
2022/06/16 09:28:48;;;;;;;;;;;;;;;;;;5088401;28;19990;-78
2022/06/16 09:31:34;;;;;;;;;;;;;;;;;;5078823;28;19918;-77
2022/06/16 09:34:20;;;;;;;;;;;;;;;;;;5080632;28;20275;-77
2022/06/16 09:37:07;;;;;;;;;;;;;;;;;;5085012;28;19912;-77
2022/06/16 09:39:54;;;;;;;;;;;;;;;;;;5090103;28;19986;-77
2022/06/16 09:42:40;;;;;;;;;;;;;;;;;;5086595;28;19954;-77
2022/06/16 09:45:27;;;;;;;;;;;;;;;;;;5085770;28;19912;-76
2022/06/16 09:48:13;;;;;;;;;;;;;;;;;;5088638;28;19918;-77
2022/06/16 09:51:00;;;;;;;;;;;;;;;;;;5088986;28;19912;-77
2022/06/16 09:53:46;;;;;;;;;;;;;;;;;;5088013;28;19921;-77
2022/06/16 09:56:32;;;;;;;;;;;;;;;;;;5063115;28;19913;-77
2022/06/16 09:59:19;;;;;;;;;;;;;;;;;;5084264;28;19916;-77
2022/06/16 10:02:05;;;;;;;;;;;;;;;;;;5087302;28;19916;-77
2022/06/16 10:04:52;;;;;;;;;;;;;;;;;;5087702;28;19927;-77
2022/06/16 10:07:41;;;;;;;;;;;;;;;;;;5074569;28;19912;-77
2022/06/16 10:10:27;;;;;;;;;;;;;;;;;;5086006;28;19919;-76
2022/06/16 10:13:14;;;;;;;;;;;;;;;;;;5090819;28;20371;-76
2022/06/16 10:16:00;;;;;;;;;;;;;;;;;;5072290;28;19915;-77
2022/06/16 10:18:47;;;;;;;;;;;;;;;;;;5091037;28;19908;-76
2022/06/16 10:21:33;;;;;;;;;;;;;;;;;;5063721;28;20026;-77
2022/06/16 10:24:20;;;;;;;;;;;;;;;;;;5078897;28;19928;-78
2022/06/16 10:27:06;;;;;;;;;;;;;;;;;;5069098;28;20386;-77
2022/06/16 10:29:53;;;;;;;;;;;;;;;;;;5078835;28;19919;-78
2022/06/16 10:32:39;;;;;;;;;;;;;;;;;;5081240;28;20327;-79
2022/06/16 10:35:26;;;;;;;;;;;;;;;;;;5083501;28;19912;-77
2022/06/16 10:38:12;;;;;;;;;;;;;;;;;;5083698;28;19927;-77
2022/06/16 10:40:59;;;;;;;;;;;;;;;;;;5085052;28;19943;-76
2022/06/16 10:43:45;;;;;;;;;;;;;;;;;;5081879;28;20837;-77
2022/06/16 10:46:32;;;;;;;;;;;;;;;;;;5079626;28;19915;-77
2022/06/16 10:49:18;;;;;;;;;;;;;;;;;;5085847;28;19912;-77
2022/06/16 10:52:05;;;;;;;;;;;;;;;;;;5080720;28;19922;-77
2022/06/16 10:54:51;;;;;;;;;;;;;;;;;;5083804;28;19918;-79
2022/06/16 10:57:38;;;;;;;;;;;;;;;;;;5085081;28;20272;-79
2022/06/16 11:00:24;;;;;;;;;;;;;;;;;;5085752;28;19931;-78
2022/06/16 11:03:10;;;;;;;;;;;;;;;;;;5078443;28;19925;-78
2022/06/16 11:05:57;;;;;;;;;;;;;;;;;;5082029;28;19923;-78
2022/06/16 11:08:43;;;;;;;;;;;;;;;;;;5082882;28;19922;-78
2022/06/16 11:11:31;;;;;;;;;;;;;;;;;;5081127;28;20299;-78
2022/06/16 11:14:17;;;;;;;;;;;;;;;;;;5078502;28;19915;-78
2022/06/16 11:17:04;;;;;;;;;;;;;;;;;;5079646;28;19908;-78
2022/06/16 11:19:50;;;;;;;;;;;;;;;;;;5085845;28;19908;-78
2022/06/16 11:22:40;;;;;;;;;;;;;;;;;;5077912;28;19908;-78
2022/06/16 11:25:26;;;;;;;;;;;;;;;;;;5073299;28;19916;-80
2022/06/16 11:28:13;;;;;;;;;;;;;;;;;;5073184;28;19938;-78
2022/06/16 11:30:59;;;;;;;;;;;;;;;;;;5084580;28;19916;-79
2022/06/16 11:36:51;;;;;;;;;;;;;;;;;;5082788;28;19908;-79
2022/06/16 11:39:37;;;;;;;;;;;;;;;;;;5069274;28;19931;-78
2022/06/16 11:42:24;;;;;;;;;;;;;;;;;;5070478;28;19916;-79
2022/06/16 11:45:10;;;;;;;;;;;;;;;;;;5085961;28;19920;-79
2022/06/16 11:47:56;;;;;;;;;;;;;;;;;;5082597;28;19908;-78
2022/06/16 11:50:43;;;;;;;;;;;;;;;;;;5071997;28;19934;-78
2022/06/16 11:53:30;;;;;;;;;;;;;;;;;;5085809;28;19924;-77
2022/06/16 11:56:16;;;;;;;;;;;;;;;;;;5085824;28;19912;-78
2022/06/16 11:59:02;;;;;;;;;;;;;;;;;;5081255;28;19926;-78
2022/06/16 12:01:49;;;;;;;;;;;;;;;;;;5085773;28;19908;-78
2022/06/16 12:04:35;;;;;;;;;;;;;;;;;;5084695;28;19924;-77
2022/06/16 12:07:25;;;;;;;;;;;;;;;;;;5087282;28;19908;-78
2022/06/16 12:10:11;;;;;;;;;;;;;;;;;;5077206;28;20287;-78
2022/06/16 12:12:58;;;;;;;;;;;;;;;;;;5082396;28;19915;-78
2022/06/16 12:15:44;;;;;;;;;;;;;;;;;;5071417;28;19926;-78
2022/06/16 12:18:31;;;;;;;;;;;;;;;;;;5083290;28;20023;-78
2022/06/16 12:21:18;;;;;;;;;;;;;;;;;;5082216;28;20295;-79
2022/06/16 12:24:04;;;;;;;;;;;;;;;;;;5083332;28;19931;-78
2022/06/16 12:26:51;;;;;;;;;;;;;;;;;;5082984;28;19912;-78
2022/06/16 12:29:38;;;;;;;;;;;;;;;;;;5071327;28;19915;-78
2022/06/16 12:32:24;;;;;;;;;;;;;;;;;;5087973;28;20359;-78
2022/06/16 12:35:11;;;;;;;;;;;;;;;;;;5077476;28;19908;-78
2022/06/16 12:37:57;;;;;;;;;;;;;;;;;;5084035;28;19908;-78
2022/06/16 12:40:44;;;;;;;;;;;;;;;;;;5088373;28;20382;-77
2022/06/16 12:43:30;;;;;;;;;;;;;;;;;;5090068;28;19919;-77
2022/06/16 12:46:17;;;;;;;;;;;;;;;;;;5085903;28;19908;-77
2022/06/16 12:49:03;;;;;;;;;;;;;;;;;;5088804;28;19913;-77
2022/06/16 12:51:49;;;;;;;;;;;;;;;;;;5076921;28;20273;-79
2022/06/16 12:54:36;;;;;;;;;;;;;;;;;;5076607;28;19928;-76
2022/06/16 12:57:22;;;;;;;;;;;;;;;;;;5082381;28;19916;-76
2022/06/16 13:00:10;;;;;;;;;;;;;;;;;;5084717;28;19918;-76
2022/06/16 13:02:56;;;;;;;;;;;;;;;;;;5072770;28;19908;-77
2022/06/16 13:05:43;;;;;;;;;;;;;;;;;;5089070;28;19923;-77
2022/06/16 13:08:29;;;;;;;;;;;;;;;;;;5087638;28;19922;-78
2022/06/16 13:11:16;;;;;;;;;;;;;;;;;;5087260;28;19912;-76
2022/06/16 13:14:02;;;;;;;;;;;;;;;;;;5074421;28;19931;-77
2022/06/16 13:16:49;;;;;;;;;;;;;;;;;;5084869;28;19916;-77
2022/06/16 13:19:35;;;;;;;;;;;;;;;;;;5085570;28;20486;-78
2022/06/16 13:22:22;;;;;;;;;;;;;;;;;;5087123;28;19908;-77
2022/06/16 13:25:08;;;;;;;;;;;;;;;;;;5088286;28;19923;-77
2022/06/16 13:27:55;;;;;;;;;;;;;;;;;;5062277;28;20288;-77
2022/06/16 13:30:42;;;;;;;;;;;;;;;;;;5069206;28;19908;-77
2022/06/16 13:33:28;;;;;;;;;;;;;;;;;;5082978;28;19908;-77
2022/06/16 13:36:15;;;;;;;;;;;;;;;;;;5088554;28;19926;-77
2022/06/16 13:39:01;;;;;;;;;;;;;;;;;;5083417;28;19913;-77
2022/06/16 13:41:48;;;;;;;;;;;;;;;;;;5077886;28;19912;-77
2022/06/16 13:44:36;;;;;;;;;;;;;;;;;;5071472;28;19932;-76
2022/06/16 13:47:22;;;;;;;;;;;;;;;;;;5081991;28;19915;-78
2022/06/16 13:50:09;;;;;;;;;;;;;;;;;;5076921;28;19930;-77
2022/06/16 13:52:55;;;;;;;;;;;;;;;;;;5090028;28;20283;-77
2022/06/16 13:55:44;;;;;;;;;;;;;;;;;;5064175;28;21237;-77
2022/06/16 13:58:31;;;;;;;;;;;;;;;;;;5072583;28;19916;-78
2022/06/16 14:01:17;;;;;;;;;;;;;;;;;;5074947;28;20449;-78
2022/06/16 14:04:03;;;;;;;;;;;;;;;;;;5079201;28;20384;-77
2022/06/16 14:06:50;;;;;;;;;;;;;;;;;;5088469;28;19916;-79
2022/06/16 14:09:36;;;;;;;;;;;;;;;;;;5088692;28;20398;-78
2022/06/16 14:12:23;;;;;;;;;;;;;;;;;;5083553;28;20364;-78
2022/06/16 14:15:09;;;;;;;;;;;;;;;;;;5084124;28;19919;-77
2022/06/16 14:17:56;;;;;;;;;;;;;;;;;;5084546;28;19930;-77
2022/06/16 14:20:43;;;;;;;;;;;;;;;;;;5084834;28;19953;-77
2022/06/16 14:23:29;;;;;;;;;;;;;;;;;;5088070;28;19990;-77
2022/06/16 14:26:16;;;;;;;;;;;;;;;;;;5084698;28;20386;-76
2022/06/16 14:29:03;;;;;;;;;;;;;;;;;;5086850;28;19919;-76
2022/06/16 14:31:49;;;;;;;;;;;;;;;;;;5081165;28;19916;-77
2022/06/16 14:34:36;;;;;;;;;;;;;;;;;;5082591;28;19919;-77
2022/06/16 14:37:22;;;;;;;;;;;;;;;;;;5075435;28;19908;-77
2022/06/16 14:40:09;;;;;;;;;;;;;;;;;;5088646;28;20371;-77
2022/06/16 14:42:55;;;;;;;;;;;;;;;;;;5075818;28;19916;-77
2022/06/16 14:45:42;;;;;;;;;;;;;;;;;;5087851;28;19916;-78
2022/06/16 14:48:28;;;;;;;;;;;;;;;;;;5087706;28;19908;-77
2022/06/16 14:51:15;;;;;;;;;;;;;;;;;;5058169;28;19919;-77
2022/06/16 14:54:01;;;;;;;;;;;;;;;;;;5068081;28;19924;-77
2022/06/16 14:56:48;;;;;;;;;;;;;;;;;;5070372;28;19916;-78
2022/06/16 14:59:34;;;;;;;;;;;;;;;;;;5084299;28;20579;-78
2022/06/16 15:02:21;;;;;;;;;;;;;;;;;;5083097;28;19908;-79
2022/06/16 15:05:07;;;;;;;;;;;;;;;;;;5086512;28;19920;-77
2022/06/16 15:07:54;;;;;;;;;;;;;;;;;;5078171;28;19916;-77
2022/06/16 15:10:40;;;;;;;;;;;;;;;;;;5085750;28;19923;-77
2022/06/16 15:13:27;;;;;;;;;;;;;;;;;;5087189;28;19908;-76
2022/06/16 15:19:19;;;;;;;;;;;;;;;;;;5082725;28;19919;-77
2022/06/16 15:22:05;;;;;;;;;;;;;;;;;;5087409;28;19916;-77
2022/06/16 15:24:51;;;;;;;;;;;;;;;;;;5077443;28;19916;-77
2022/06/16 15:27:38;;;;;;;;;;;;;;;;;;5067160;28;20264;-77
2022/06/16 15:30:24;;;;;;;;;;;;;;;;;;5080440;28;19916;-76
2022/06/16 15:36:16;;;;;;;;;;;;;;;;;;5089036;28;19908;-76
2022/06/16 15:39:03;;;;;;;;;;;;;;;;;;5081610;28;20299;-77
2022/06/16 15:41:49;;;;;;;;;;;;;;;;;;5087065;28;19912;-77
2022/06/16 15:44:36;;;;;;;;;;;;;;;;;;5080193;28;19923;-77
2022/06/16 15:47:22;;;;;;;;;;;;;;;;;;5079450;28;19935;-77
2022/06/16 15:50:09;;;;;;;;;;;;;;;;;;5086983;28;19915;-79
2022/06/16 15:52:55;;;;;;;;;;;;;;;;;;5083764;28;19920;-78
2022/06/16 15:55:42;;;;;;;;;;;;;;;;;;5082837;28;19942;-76
2022/06/16 15:58:28;;;;;;;;;;;;;;;;;;5087908;28;19908;-80
2022/06/16 16:01:15;;;;;;;;;;;;;;;;;;5077387;28;19942;-78
2022/06/16 16:04:01;;;;;;;;;;;;;;;;;;5066244;28;19931;-77
2022/06/16 16:06:48;;;;;;;;;;;;;;;;;;5075448;28;20331;-77
2022/06/16 16:09:34;;;;;;;;;;;;;;;;;;5078801;28;20419;-76
2022/06/16 16:12:21;;;;;;;;;;;;;;;;;;5082196;28;20315;-77
2022/06/16 16:15:07;;;;;;;;;;;;;;;;;;5084404;28;19914;-76
2022/06/16 16:17:53;;;;;;;;;;;;;;;;;;5071018;28;20447;-77
2022/06/16 16:20:40;;;;;;;;;;;;;;;;;;5078005;28;19908;-76
2022/06/16 16:23:26;;;;;;;;;;;;;;;;;;5070423;28;19908;-76
2022/06/16 16:26:13;;;;;;;;;;;;;;;;;;5063361;28;19913;-76
2022/06/16 16:29:00;;;;;;;;;;;;;;;;;;5073259;28;19909;-77
2022/06/16 16:31:47;;;;;;;;;;;;;;;;;;5082047;28;19918;-76
2022/06/16 16:34:33;;;;;;;;;;;;;;;;;;5084118;28;19919;-77
2022/06/16 16:37:20;;;;;;;;;;;;;;;;;;5077052;28;19921;-77
2022/06/16 16:40:06;;;;;;;;;;;;;;;;;;5070958;28;19909;-77
2022/06/16 16:43:02;;;;;;;;;;;;;;;;;;5076759;28;19912;-76
2022/06/16 16:45:49;;;;;;;;;;;;;;;;;;5083367;28;20563;-78
2022/06/16 16:48:36;;;;;;;;;;;;;;;;;;5063658;28;19908;-77
2022/06/16 16:51:22;;;;;;;;;;;;;;;;;;5075107;28;20455;-78
2022/06/16 16:54:08;;;;;;;;;;;;;;;;;;5088713;28;19925;-78
2022/06/16 16:56:55;;;;;;;;;;;;;;;;;;5080108;28;19916;-79
2022/06/16 16:59:43;;;;;;;;;;;;;;;;;;5078142;28;19923;-81
2022/06/16 17:02:30;;;;;;;;;;;;;;;;;;5075768;28;19915;-79
2022/06/16 17:05:16;;;;;;;;;;;;;;;;;;5080530;28;20426;-78
2022/06/16 17:08:03;;;;;;;;;;;;;;;;;;5073244;28;19918;-78
2022/06/16 17:13:54;;;;;;;;;;;;;;;;;;5082909;28;19916;-79
2022/06/16 17:16:42;;;;;;;;;;;;;;;;;;5071906;28;19934;-79
2022/06/16 17:19:28;;;;;;;;;;;;;;;;;;5075923;28;19922;-79
2022/06/16 17:22:15;;;;;;;;;;;;;;;;;;5077627;28;19921;-78
2022/06/16 17:25:04;;;;;;;;;;;;;;;;;;5077859;28;19931;-79
2022/06/16 17:27:50;;;;;;;;;;;;;;;;;;5086929;28;19919;-79
2022/06/16 17:30:37;;;;;;;;;;;;;;;;;;5077862;28;20303;-78
2022/06/16 17:33:24;;;;;;;;;;;;;;;;;;5073529;28;19909;-81
2022/06/16 17:36:10;;;;;;;;;;;;;;;;;;5076969;28;19917;-78
2022/06/16 17:38:57;;;;;;;;;;;;;;;;;;5084801;28;19919;-79
2022/06/16 17:41:43;;;;;;;;;;;;;;;;;;5078704;28;19935;-79
2022/06/16 17:44:30;;;;;;;;;;;;;;;;;;5085381;28;20328;-78
2022/06/16 17:47:17;;;;;;;;;;;;;;;;;;5078454;28;19908;-78
2022/06/16 17:50:03;;;;;;;;;;;;;;;;;;5081391;28;19920;-75
2022/06/16 18:02:08;;;;;;;;;;;;;;;;;;5078148;28;19912;-76
2022/06/16 18:04:56;;;;;;;;;;;;;;;;;;5079922;28;20335;-77
2022/06/16 18:07:42;;;;;;;;;;;;;;;;;;5081640;28;19920;-76
2022/06/16 18:10:29;;;;;;;;;;;;;;;;;;5076947;28;19915;-77
2022/06/16 18:13:15;;;;;;;;;;;;;;;;;;5081809;28;19928;-78
2022/06/16 18:16:02;;;;;;;;;;;;;;;;;;5081281;28;20276;-78
2022/06/16 18:18:50;;;;;;;;;;;;;;;;;;5078339;28;19951;-78
2022/06/16 18:21:37;;;;;;;;;;;;;;;;;;5068506;28;19920;-79
2022/06/16 18:24:26;;;;;;;;;;;;;;;;;;5068125;28;19930;-78
2022/06/16 18:27:13;;;;;;;;;;;;;;;;;;5076822;28;19908;-77
2022/06/16 18:29:59;;;;;;;;;;;;;;;;;;5077980;28;19908;-78
2022/06/16 18:32:46;;;;;;;;;;;;;;;;;;5076620;28;19913;-76
2022/06/16 18:35:32;;;;;;;;;;;;;;;;;;5078121;28;20368;-76
2022/06/16 18:38:19;;;;;;;;;;;;;;;;;;5076856;28;19912;-76
2022/06/16 18:41:05;;;;;;;;;;;;;;;;;;5080229;28;19920;-79
2022/06/16 18:43:52;;;;;;;;;;;;;;;;;;5062774;28;19920;-76
2022/06/16 18:49:43;;;;;;;;;;;;;;;;;;5082231;28;19923;-77
2022/06/16 18:52:30;;;;;;;;;;;;;;;;;;5066548;28;19939;-78
2022/06/16 18:55:16;;;;;;;;;;;;;;;;;;5078124;28;19916;-78
2022/06/16 18:58:03;;;;;;;;;;;;;;;;;;5076973;28;19912;-80
2022/06/16 19:00:49;;;;;;;;;;;;;;;;;;5082307;28;19908;-79
2022/06/16 19:03:36;;;;;;;;;;;;;;;;;;5078294;28;20292;-79
2022/06/16 19:06:24;;;;;;;;;;;;;;;;;;5075585;28;19916;-79
2022/06/16 19:09:11;;;;;;;;;;;;;;;;;;5074373;28;19919;-79
2022/06/16 19:15:03;;;;;;;;;;;;;;;;;;5077563;28;19915;-79
2022/06/16 19:17:50;;;;;;;;;;;;;;;;;;5086122;28;19919;-78
2022/06/16 19:20:37;;;;;;;;;;;;;;;;;;5080495;28;19919;-78
2022/06/16 19:23:24;;;;;;;;;;;;;;;;;;5084865;28;20317;-79
2022/06/16 19:26:11;;;;;;;;;;;;;;;;;;5082584;28;19920;-79
2022/06/16 19:28:57;;;;;;;;;;;;;;;;;;5081814;28;20353;-78
2022/06/16 19:31:44;;;;;;;;;;;;;;;;;;5080955;28;19919;-77
2022/06/16 19:34:30;;;;;;;;;;;;;;;;;;5088096;28;20482;-80
2022/06/16 19:37:17;;;;;;;;;;;;;;;;;;5073737;28;19916;-77
2022/06/16 19:40:03;;;;;;;;;;;;;;;;;;5081720;28;19919;-77
2022/06/16 19:42:49;;;;;;;;;;;;;;;;;;5085272;28;19919;-78
2022/06/16 19:51:46;;;;;;;;;;;;;;;;;;5081030;28;19912;-84
2022/06/16 19:54:33;;;;;;;;;;;;;;;;;;5071255;28;20399;-85
2022/06/16 19:57:19;;;;;;;;;;;;;;;;;;5079348;28;19908;-83